sensor_id;sensor_type;location;lat;lon;timestamp;pressure;altitude;pressure_sealevel;temperature
31921;BMP280;66485;52.128;4.436;2023-07-13T00:00:52;101443.50;;;27.28
31921;BMP280;66485;52.128;4.436;2023-07-13T00:03:18;101442.00;;;27.27
31921;BMP280;66485;52.128;4.436;2023-07-13T00:05:43;101441.25;;;27.27
31921;BMP280;66485;52.128;4.436;2023-07-13T00:08:09;101436.50;;;27.27
31921;BMP280;66485;52.128;4.436;2023-07-13T00:10:42;101436.50;;;27.27
31921;BMP280;66485;52.128;4.436;2023-07-13T00:13:08;101447.66;;;27.23
31921;BMP280;66485;52.128;4.436;2023-07-13T00:15:34;101452.69;;;27.25
31921;BMP280;66485;52.128;4.436;2023-07-13T00:18:00;101458.66;;;27.23
31921;BMP280;66485;52.128;4.436;2023-07-13T00:20:26;101457.91;;;27.23
31921;BMP280;66485;52.128;4.436;2023-07-13T00:22:52;101450.09;;;27.21
31921;BMP280;66485;52.128;4.436;2023-07-13T00:25:22;101457.13;;;27.22
31921;BMP280;66485;52.128;4.436;2023-07-13T00:27:49;101457.13;;;27.22
31921;BMP280;66485;52.128;4.436;2023-07-13T00:30:15;101460.38;;;27.21
31921;BMP280;66485;52.128;4.436;2023-07-13T00:32:41;101452.56;;;27.19
31921;BMP280;66485;52.128;4.436;2023-07-13T00:35:07;101462.03;;;27.18
31921;BMP280;66485;52.128;4.436;2023-07-13T00:37:33;101462.03;;;27.18
31921;BMP280;66485;52.128;4.436;2023-07-13T00:40:04;101471.53;;;27.17
31921;BMP280;66485;52.128;4.436;2023-07-13T00:42:30;101467.25;;;27.16
31921;BMP280;66485;52.128;4.436;2023-07-13T00:47:37;101466.50;;;27.16
31921;BMP280;66485;52.128;4.436;2023-07-13T00:50:04;101466.50;;;27.16
31921;BMP280;66485;52.128;4.436;2023-07-13T00:52:31;101455.19;;;27.14
31921;BMP280;66485;52.128;4.436;2023-07-13T00:54:58;101455.19;;;27.14
31921;BMP280;66485;52.128;4.436;2023-07-13T00:57:24;101456.13;;;27.11
31921;BMP280;66485;52.128;4.436;2023-07-13T00:59:54;101459.16;;;27.13
31921;BMP280;66485;52.128;4.436;2023-07-13T01:02:20;101459.16;;;27.13
31921;BMP280;66485;52.128;4.436;2023-07-13T01:04:47;101465.59;;;27.10
31921;BMP280;66485;52.128;4.436;2023-07-13T01:07:13;101468.34;;;27.10
31921;BMP280;66485;52.128;4.436;2023-07-13T01:09:38;101466.34;;;27.10
31921;BMP280;66485;52.128;4.436;2023-07-13T01:12:04;101466.34;;;27.10
31921;BMP280;66485;52.128;4.436;2023-07-13T01:14:30;101459.94;;;27.04
31921;BMP280;66485;52.128;4.436;2023-07-13T01:16:56;101459.03;;;27.07
31921;BMP280;66485;52.128;4.436;2023-07-13T01:19:40;101461.03;;;27.07
31921;BMP280;66485;52.128;4.436;2023-07-13T01:22:14;101465.75;;;27.06
31921;BMP280;66485;52.128;4.436;2023-07-13T01:24:42;101459.19;;;27.04
31921;BMP280;66485;52.128;4.436;2023-07-13T01:27:09;101459.19;;;27.04
31921;BMP280;66485;52.128;4.436;2023-07-13T01:29:37;101464.25;;;27.05
31921;BMP280;66485;52.128;4.436;2023-07-13T01:32:13;101470.94;;;27.04
31921;BMP280;66485;52.128;4.436;2023-07-13T01:34:38;101476.91;;;27.03
31921;BMP280;66485;52.128;4.436;2023-07-13T01:37:08;101476.34;;;26.99
31921;BMP280;66485;52.128;4.436;2023-07-13T01:39:34;101476.34;;;26.99
31921;BMP280;66485;52.128;4.436;2023-07-13T01:42:00;101477.56;;;26.98
31921;BMP280;66485;52.128;4.436;2023-07-13T01:44:26;101463.34;;;26.99
31921;BMP280;66485;52.128;4.436;2023-07-13T01:46:51;101463.34;;;26.99
31921;BMP280;66485;52.128;4.436;2023-07-13T01:49:17;101475.56;;;26.98
31921;BMP280;66485;52.128;4.436;2023-07-13T01:51:42;101480.75;;;26.96
31921;BMP280;66485;52.128;4.436;2023-07-13T01:54:07;101480.75;;;26.96
31921;BMP280;66485;52.128;4.436;2023-07-13T01:56:33;101480.31;;;26.98
31921;BMP280;66485;52.128;4.436;2023-07-13T01:58:58;101483.50;;;26.96
31921;BMP280;66485;52.128;4.436;2023-07-13T02:01:24;101479.53;;;26.97
31921;BMP280;66485;52.128;4.436;2023-07-13T02:03:49;101477.28;;;26.96
31921;BMP280;66485;52.128;4.436;2023-07-13T02:06:14;101485.19;;;26.94
31921;BMP280;66485;52.128;4.436;2023-07-13T02:08:41;101485.19;;;26.94
31921;BMP280;66485;52.128;4.436;2023-07-13T02:11:08;101480.16;;;26.92
31921;BMP280;66485;52.128;4.436;2023-07-13T02:13:33;101480.16;;;26.92
31921;BMP280;66485;52.128;4.436;2023-07-13T02:15:59;101489.63;;;26.91
31921;BMP280;66485;52.128;4.436;2023-07-13T02:18:25;101495.91;;;26.92
31921;BMP280;66485;52.128;4.436;2023-07-13T02:20:50;101485.34;;;26.90
31921;BMP280;66485;52.128;4.436;2023-07-13T02:23:15;101485.34;;;26.90
31921;BMP280;66485;52.128;4.436;2023-07-13T02:25:41;101489.03;;;26.87
31921;BMP280;66485;52.128;4.436;2023-07-13T02:28:06;101488.56;;;26.89
31921;BMP280;66485;52.128;4.436;2023-07-13T02:30:32;101488.56;;;26.89
31921;BMP280;66485;52.128;4.436;2023-07-13T02:32:57;101484.59;;;26.90
31921;BMP280;66485;52.128;4.436;2023-07-13T02:35:23;101484.59;;;26.90
31921;BMP280;66485;52.128;4.436;2023-07-13T02:37:49;101487.81;;;26.88
31921;BMP280;66485;52.128;4.436;2023-07-13T02:40:14;101492.53;;;26.88
31921;BMP280;66485;52.128;4.436;2023-07-13T02:42:40;101491.78;;;26.87
31921;BMP280;66485;52.128;4.436;2023-07-13T02:45:07;101491.78;;;26.87
31921;BMP280;66485;52.128;4.436;2023-07-13T02:47:33;101480.19;;;26.83
31921;BMP280;66485;52.128;4.436;2023-07-13T02:49:59;101493.03;;;26.86
31921;BMP280;66485;52.128;4.436;2023-07-13T02:52:25;101491.50;;;26.85
31921;BMP280;66485;52.128;4.436;2023-07-13T02:54:50;101485.22;;;26.85
31921;BMP280;66485;52.128;4.436;2023-07-13T02:57:16;101492.72;;;26.84
31921;BMP280;66485;52.128;4.436;2023-07-13T02:59:41;101490.72;;;26.85
31921;BMP280;66485;52.128;4.436;2023-07-13T03:02:07;101488.88;;;26.81
31921;BMP280;66485;52.128;4.436;2023-07-13T03:04:32;101488.88;;;26.81
31921;BMP280;66485;52.128;4.436;2023-07-13T03:06:58;101487.06;;;26.78
31921;BMP280;66485;52.128;4.436;2023-07-13T03:09:24;101487.06;;;26.78
31921;BMP280;66485;52.128;4.436;2023-07-13T03:11:52;101488.13;;;26.81
31921;BMP280;66485;52.128;4.436;2023-07-13T03:14:18;101496.84;;;26.79
31921;BMP280;66485;52.128;4.436;2023-07-13T03:16:44;101501.59;;;26.79
31921;BMP280;66485;52.128;4.436;2023-07-13T03:19:09;101502.03;;;26.77
31921;BMP280;66485;52.128;4.436;2023-07-13T03:21:34;101502.03;;;26.77
31921;BMP280;66485;52.128;4.436;2023-07-13T03:24:00;101500.03;;;26.78
31921;BMP280;66485;52.128;4.436;2023-07-13T03:26:25;101493.03;;;26.77
31921;BMP280;66485;52.128;4.436;2023-07-13T03:28:51;101490.28;;;26.77
31921;BMP280;66485;52.128;4.436;2023-07-13T03:31:21;101495.03;;;26.76
31921;BMP280;66485;52.128;4.436;2023-07-13T03:33:47;101497.00;;;26.76
31921;BMP280;66485;52.128;4.436;2023-07-13T03:36:15;101496.25;;;26.75
31921;BMP280;66485;52.128;4.436;2023-07-13T03:38:46;101498.22;;;26.75
31921;BMP280;66485;52.128;4.436;2023-07-13T03:41:14;101498.22;;;26.75
31921;BMP280;66485;52.128;4.436;2023-07-13T03:43:40;101509.22;;;26.75
31921;BMP280;66485;52.128;4.436;2023-07-13T03:46:05;101500.97;;;26.75
31921;BMP280;66485;52.128;4.436;2023-07-13T03:48:30;101500.97;;;26.75
31921;BMP280;66485;52.128;4.436;2023-07-13T03:50:56;101503.88;;;26.71
31921;BMP280;66485;52.128;4.436;2023-07-13T03:53:21;101505.84;;;26.71
31921;BMP280;66485;52.128;4.436;2023-07-13T03:55:47;101505.06;;;26.70
31921;BMP280;66485;52.128;4.436;2023-07-13T03:58:31;101505.06;;;26.70
31921;BMP280;66485;52.128;4.436;2023-07-13T04:00:58;101505.84;;;26.71
31921;BMP280;66485;52.128;4.436;2023-07-13T04:03:24;101511.34;;;26.71
31921;BMP280;66485;52.128;4.436;2023-07-13T04:05:50;101514.56;;;26.69
31921;BMP280;66485;52.128;4.436;2023-07-13T04:08:16;101512.59;;;26.70
31921;BMP280;66485;52.128;4.436;2023-07-13T04:10:42;101522.34;;;26.71
31921;BMP280;66485;52.128;4.436;2023-07-13T04:13:08;101522.34;;;26.71
31921;BMP280;66485;52.128;4.436;2023-07-13T04:15:33;101518.53;;;26.68
31921;BMP280;66485;52.128;4.436;2023-07-13T04:17:59;101525.56;;;26.69
31921;BMP280;66485;52.128;4.436;2023-07-13T04:20:25;101525.56;;;26.69
31921;BMP280;66485;52.128;4.436;2023-07-13T04:22:51;101516.25;;;26.67
31921;BMP280;66485;52.128;4.436;2023-07-13T04:25:18;101515.03;;;26.68
31921;BMP280;66485;52.128;4.436;2023-07-13T04:27:44;101523.25;;;26.68
31921;BMP280;66485;52.128;4.436;2023-07-13T04:30:09;101521.00;;;26.66
31921;BMP280;66485;52.128;4.436;2023-07-13T04:32:35;101527.25;;;26.67
31921;BMP280;66485;52.128;4.436;2023-07-13T04:35:00;101533.97;;;26.66
31921;BMP280;66485;52.128;4.436;2023-07-13T04:37:26;101529.25;;;26.66
31921;BMP280;66485;52.128;4.436;2023-07-13T04:39:52;101539.47;;;26.66
31921;BMP280;66485;52.128;4.436;2023-07-13T04:42:19;101539.91;;;26.64
31921;BMP280;66485;52.128;4.436;2023-07-13T04:44:49;101539.91;;;26.64
31921;BMP280;66485;52.128;4.436;2023-07-13T04:47:14;101529.69;;;26.65
31921;BMP280;66485;52.128;4.436;2023-07-13T04:49:40;101536.41;;;26.64
31921;BMP280;66485;52.128;4.436;2023-07-13T04:52:06;101536.41;;;26.64
31921;BMP280;66485;52.128;4.436;2023-07-13T04:54:33;101545.41;;;26.64
31921;BMP280;66485;52.128;4.436;2023-07-13T04:56:58;101541.44;;;26.65
31921;BMP280;66485;52.128;4.436;2023-07-13T04:59:24;101543.44;;;26.65
31921;BMP280;66485;52.128;4.436;2023-07-13T05:01:49;101549.69;;;26.65
31921;BMP280;66485;52.128;4.436;2023-07-13T05:04:15;101552.88;;;26.64
31921;BMP280;66485;52.128;4.436;2023-07-13T05:06:40;101552.88;;;26.64
31921;BMP280;66485;52.128;4.436;2023-07-13T05:09:06;101560.69;;;26.65
31921;BMP280;66485;52.128;4.436;2023-07-13T05:11:32;101560.69;;;26.65
31921;BMP280;66485;52.128;4.436;2023-07-13T05:13:58;101563.44;;;26.65
31921;BMP280;66485;52.128;4.436;2023-07-13T05:16:23;101569.38;;;26.64
31921;BMP280;66485;52.128;4.436;2023-07-13T05:18:48;101573.22;;;26.66
31921;BMP280;66485;52.128;4.436;2023-07-13T05:21:14;101574.88;;;26.64
31921;BMP280;66485;52.128;4.436;2023-07-13T05:23:40;101574.88;;;26.64
31921;BMP280;66485;52.128;4.436;2023-07-13T05:26:08;101577.63;;;26.64
31921;BMP280;66485;52.128;4.436;2023-07-13T05:28:34;101581.13;;;26.64
31921;BMP280;66485;52.128;4.436;2023-07-13T05:30:59;101581.13;;;26.64
31921;BMP280;66485;52.128;4.436;2023-07-13T05:33:25;101580.09;;;26.62
31921;BMP280;66485;52.128;4.436;2023-07-13T05:35:51;101577.34;;;26.62
31921;BMP280;66485;52.128;4.436;2023-07-13T05:38:16;101577.34;;;26.62
31921;BMP280;66485;52.128;4.436;2023-07-13T05:40:43;101592.59;;;26.63
31921;BMP280;66485;52.128;4.436;2023-07-13T05:43:09;101587.13;;;26.63
31921;BMP280;66485;52.128;4.436;2023-07-13T05:45:34;101579.28;;;26.61
31921;BMP280;66485;52.128;4.436;2023-07-13T05:48:00;101579.28;;;26.61
31921;BMP280;66485;52.128;4.436;2023-07-13T05:50:26;101585.69;;;26.58
31921;BMP280;66485;52.128;4.436;2023-07-13T05:52:51;101592.44;;;26.57
31921;BMP280;66485;52.128;4.436;2023-07-13T05:55:17;101604.00;;;26.61
31921;BMP280;66485;52.128;4.436;2023-07-13T05:57:43;101605.25;;;26.60
31921;BMP280;66485;52.128;4.436;2023-07-13T06:00:09;101601.28;;;26.61
31921;BMP280;66485;52.128;4.436;2023-07-13T06:02:35;101601.28;;;26.61
31921;BMP280;66485;52.128;4.436;2023-07-13T06:05:01;101604.00;;;26.61
31921;BMP280;66485;52.128;4.436;2023-07-13T06:07:26;101608.75;;;26.61
31921;BMP280;66485;52.128;4.436;2023-07-13T06:09:51;101608.00;;;26.60
31921;BMP280;66485;52.128;4.436;2023-07-13T06:12:17;101611.97;;;26.59
31921;BMP280;66485;52.128;4.436;2023-07-13T06:14:42;101615.47;;;26.60
31921;BMP280;66485;52.128;4.436;2023-07-13T06:17:08;101615.47;;;26.60
31921;BMP280;66485;52.128;4.436;2023-07-13T06:19:34;101624.19;;;26.58
31921;BMP280;66485;52.128;4.436;2023-07-13T06:22:00;101626.94;;;26.58
31921;BMP280;66485;52.128;4.436;2023-07-13T06:24:26;101630.44;;;26.59
31921;BMP280;66485;52.128;4.436;2023-07-13T06:26:51;101628.47;;;26.59
31921;BMP280;66485;52.128;4.436;2023-07-13T06:29:17;101632.41;;;26.58
31921;BMP280;66485;52.128;4.436;2023-07-13T06:31:42;101628.91;;;26.58
31921;BMP280;66485;52.128;4.436;2023-07-13T06:34:08;101629.22;;;26.60
31921;BMP280;66485;52.128;4.436;2023-07-13T06:36:33;101625.72;;;26.59
31921;BMP280;66485;52.128;4.436;2023-07-13T06:38:59;101625.72;;;26.59
31921;BMP280;66485;52.128;4.436;2023-07-13T06:41:24;101635.50;;;26.60
31921;BMP280;66485;52.128;4.436;2023-07-13T06:43:53;101637.47;;;26.60
31921;BMP280;66485;52.128;4.436;2023-07-13T06:46:21;101637.47;;;26.60
31921;BMP280;66485;52.128;4.436;2023-07-13T06:48:46;101639.44;;;26.59
31921;BMP280;66485;52.128;4.436;2023-07-13T06:51:12;101653.19;;;26.59
31921;BMP280;66485;52.128;4.436;2023-07-13T06:53:37;101641.44;;;26.59
31921;BMP280;66485;52.128;4.436;2023-07-13T06:56:03;101649.22;;;26.60
31921;BMP280;66485;52.128;4.436;2023-07-13T06:58:28;101644.06;;;26.62
31921;BMP280;66485;52.128;4.436;2023-07-13T07:00:54;101645.22;;;26.61
31921;BMP280;66485;52.128;4.436;2023-07-13T07:03:19;101656.22;;;26.61
31921;BMP280;66485;52.128;4.436;2023-07-13T07:05:45;101655.47;;;26.61
31921;BMP280;66485;52.128;4.436;2023-07-13T07:08:11;101651.53;;;26.62
31921;BMP280;66485;52.128;4.436;2023-07-13T07:10:36;101656.22;;;26.61
31921;BMP280;66485;52.128;4.436;2023-07-13T07:13:03;101655.47;;;26.61
31921;BMP280;66485;52.128;4.436;2023-07-13T07:15:28;101655.47;;;26.61
31921;BMP280;66485;52.128;4.436;2023-07-13T07:17:54;101652.91;;;26.57
31921;BMP280;66485;52.128;4.436;2023-07-13T07:20:20;101662.34;;;26.56
31921;BMP280;66485;52.128;4.436;2023-07-13T07:22:46;101654.72;;;26.60
31921;BMP280;66485;52.128;4.436;2023-07-13T07:25:12;101654.72;;;26.60
31921;BMP280;66485;52.128;4.436;2023-07-13T07:27:37;101649.66;;;26.59
31921;BMP280;66485;52.128;4.436;2023-07-13T07:30:03;101654.41;;;26.58
31921;BMP280;66485;52.128;4.436;2023-07-13T07:32:29;101652.59;;;26.64
31921;BMP280;66485;52.128;4.436;2023-07-13T07:34:56;101652.59;;;26.64
31921;BMP280;66485;52.128;4.436;2023-07-13T07:37:22;101670.91;;;26.67
31921;BMP280;66485;52.128;4.436;2023-07-13T07:39:47;101676.41;;;26.67
31921;BMP280;66485;52.128;4.436;2023-07-13T07:42:13;101676.09;;;26.65
31921;BMP280;66485;52.128;4.436;2023-07-13T07:44:40;101676.09;;;26.65
31921;BMP280;66485;52.128;4.436;2023-07-13T07:47:06;101680.38;;;26.66
31921;BMP280;66485;52.128;4.436;2023-07-13T07:49:31;101680.38;;;26.66
31921;BMP280;66485;52.128;4.436;2023-07-13T07:51:57;101688.94;;;26.68
31921;BMP280;66485;52.128;4.436;2023-07-13T07:54:23;101688.94;;;26.68
31921;BMP280;66485;52.128;4.436;2023-07-13T07:56:48;101684.84;;;26.73
31921;BMP280;66485;52.128;4.436;2023-07-13T07:59:14;101684.84;;;26.73
31921;BMP280;66485;52.128;4.436;2023-07-13T08:01:39;101699.31;;;26.73
31921;BMP280;66485;52.128;4.436;2023-07-13T08:04:05;101702.06;;;26.73
31921;BMP280;66485;52.128;4.436;2023-07-13T08:06:33;101702.41;;;26.75
31921;BMP280;66485;52.128;4.436;2023-07-13T08:08:59;101702.41;;;26.75
31921;BMP280;66485;52.128;4.436;2023-07-13T08:11:25;101696.56;;;26.73
31921;BMP280;66485;52.128;4.436;2023-07-13T08:13:51;101683.59;;;26.74
31921;BMP280;66485;52.128;4.436;2023-07-13T08:16:16;101699.66;;;26.75
31921;BMP280;66485;52.128;4.436;2023-07-13T08:18:42;101700.41;;;26.76
31921;BMP280;66485;52.128;4.436;2023-07-13T08:21:08;101705.44;;;26.77
31921;BMP280;66485;52.128;4.436;2023-07-13T08:23:34;101712.91;;;26.77
31921;BMP280;66485;52.128;4.436;2023-07-13T08:26:00;101699.16;;;26.77
31921;BMP280;66485;52.128;4.436;2023-07-13T08:28:27;101699.16;;;26.77
31921;BMP280;66485;52.128;4.436;2023-07-13T08:30:52;101689.88;;;26.74
31921;BMP280;66485;52.128;4.436;2023-07-13T08:33:19;101703.00;;;26.79
31921;BMP280;66485;52.128;4.436;2023-07-13T08:35:46;101703.00;;;26.79
31921;BMP280;66485;52.128;4.436;2023-07-13T08:38:12;101696.91;;;26.75
31921;BMP280;66485;52.128;4.436;2023-07-13T08:40:39;101703.75;;;26.80
31921;BMP280;66485;52.128;4.436;2023-07-13T08:43:09;101706.81;;;26.82
31921;BMP280;66485;52.128;4.436;2023-07-13T08:45:56;101706.81;;;26.82
31921;BMP280;66485;52.128;4.436;2023-07-13T08:48:35;101706.81;;;26.82
31921;BMP280;66485;52.128;4.436;2023-07-13T08:53:49;101706.38;;;26.84
31921;BMP280;66485;52.128;4.436;2023-07-13T08:56:24;101713.84;;;26.83
31921;BMP280;66485;52.128;4.436;2023-07-13T08:58:57;101711.09;;;26.83
31921;BMP280;66485;52.128;4.436;2023-07-13T09:04:18;101702.41;;;26.85
31921;BMP280;66485;52.128;4.436;2023-07-13T09:07:07;101703.94;;;26.86
31921;BMP280;66485;52.128;4.436;2023-07-13T09:09:47;101703.94;;;26.86
31921;BMP280;66485;52.128;4.436;2023-07-13T09:14:51;101710.22;;;26.86
31921;BMP280;66485;52.128;4.436;2023-07-13T09:17:21;101705.44;;;26.87
31921;BMP280;66485;52.128;4.436;2023-07-13T09:19:57;101705.44;;;26.87
31921;BMP280;66485;52.128;4.436;2023-07-13T09:22:24;101712.19;;;26.86
31921;BMP280;66485;52.128;4.436;2023-07-13T09:25:02;101711.72;;;26.87
31921;BMP280;66485;52.128;4.436;2023-07-13T09:27:33;101714.94;;;26.95
31921;BMP280;66485;52.128;4.436;2023-07-13T09:30:21;101714.94;;;26.95
31921;BMP280;66485;52.128;4.436;2023-07-13T09:32:51;101734.50;;;26.97
31921;BMP280;66485;52.128;4.436;2023-07-13T09:35:21;101725.78;;;26.98
31921;BMP280;66485;52.128;4.436;2023-07-13T09:37:47;101725.78;;;26.98
31921;BMP280;66485;52.128;4.436;2023-07-13T09:40:44;101737.84;;;27.01
31921;BMP280;66485;52.128;4.436;2023-07-13T09:43:14;101737.84;;;27.01
31921;BMP280;66485;52.128;4.436;2023-07-13T09:45:40;101747.91;;;27.04
31921;BMP280;66485;52.128;4.436;2023-07-13T09:48:11;101747.91;;;27.04
31921;BMP280;66485;52.128;4.436;2023-07-13T09:50:37;101744.88;;;27.02
31921;BMP280;66485;52.128;4.436;2023-07-13T09:53:03;101755.13;;;27.01
31921;BMP280;66485;52.128;4.436;2023-07-13T09:55:39;101741.38;;;27.01
31921;BMP280;66485;52.128;4.436;2023-07-13T09:58:15;101741.38;;;27.01
31921;BMP280;66485;52.128;4.436;2023-07-13T10:00:41;101756.16;;;27.04
31921;BMP280;66485;52.128;4.436;2023-07-13T10:03:23;101756.16;;;27.04
31921;BMP280;66485;52.128;4.436;2023-07-13T10:05:50;101754.97;;;27.05
31921;BMP280;66485;52.128;4.436;2023-07-13T10:08:36;101769.03;;;27.07
31921;BMP280;66485;52.128;4.436;2023-07-13T10:11:20;101777.56;;;27.09
31921;BMP280;66485;52.128;4.436;2023-07-13T10:16:28;101768.88;;;27.10
31921;BMP280;66485;52.128;4.436;2023-07-13T10:18:59;101782.16;;;27.12
31921;BMP280;66485;52.128;4.436;2023-07-13T10:21:30;101793.47;;;27.14
31921;BMP280;66485;52.128;4.436;2023-07-13T10:24:04;101799.75;;;27.14
31921;BMP280;66485;52.128;4.436;2023-07-13T10:26:33;101799.75;;;27.14
31921;BMP280;66485;52.128;4.436;2023-07-13T10:29:05;101798.06;;;27.17
31921;BMP280;66485;52.128;4.436;2023-07-13T10:31:37;101798.06;;;27.17
31921;BMP280;66485;52.128;4.436;2023-07-13T10:34:03;101795.63;;;27.19
31921;BMP280;66485;52.128;4.436;2023-07-13T10:36:43;101795.94;;;27.21
31921;BMP280;66485;52.128;4.436;2023-07-13T10:39:13;101795.94;;;27.21
31921;BMP280;66485;52.128;4.436;2023-07-13T10:41:42;101800.19;;;27.22
31921;BMP280;66485;52.128;4.436;2023-07-13T10:44:22;101796.22;;;27.23
31921;BMP280;66485;52.128;4.436;2023-07-13T10:46:53;101809.53;;;27.24
31921;BMP280;66485;52.128;4.436;2023-07-13T10:49:20;101809.53;;;27.24
31921;BMP280;66485;52.128;4.436;2023-07-13T10:51:46;101816.91;;;27.28
31921;BMP280;66485;52.128;4.436;2023-07-13T10:54:18;101806.94;;;27.30
31921;BMP280;66485;52.128;4.436;2023-07-13T10:56:45;101806.94;;;27.30
31921;BMP280;66485;52.128;4.436;2023-07-13T11:04:14;101836.88;;;27.37
31921;BMP280;66485;52.128;4.436;2023-07-13T11:06:41;101811.69;;;27.39
31921;BMP280;66485;52.128;4.436;2023-07-13T11:09:39;101821.78;;;27.42
31921;BMP280;66485;52.128;4.436;2023-07-13T11:17:49;101815.06;;;27.43
31921;BMP280;66485;52.128;4.436;2023-07-13T11:30:45;101819.94;;;27.57
31921;BMP280;66485;52.128;4.436;2023-07-13T11:38:35;101809.69;;;27.57
31921;BMP280;66485;52.128;4.436;2023-07-13T11:41:23;101824.66;;;27.65
31921;BMP280;66485;52.128;4.436;2023-07-13T11:43:53;101824.22;;;27.67
31921;BMP280;66485;52.128;4.436;2023-07-13T11:46:27;101824.22;;;27.67
31921;BMP280;66485;52.128;4.436;2023-07-13T11:48:53;101814.88;;;27.74
31921;BMP280;66485;52.128;4.436;2023-07-13T11:51:25;101815.19;;;27.76
31921;BMP280;66485;52.128;4.436;2023-07-13T11:53:53;101824.22;;;27.76
31921;BMP280;66485;52.128;4.436;2023-07-13T11:56:19;101824.03;;;27.80
31921;BMP280;66485;52.128;4.436;2023-07-13T11:58:49;101831.53;;;27.79
31921;BMP280;66485;52.128;4.436;2023-07-13T12:01:21;101831.53;;;27.79
31921;BMP280;66485;52.128;4.436;2023-07-13T12:03:48;101836.44;;;27.84
31921;BMP280;66485;52.128;4.436;2023-07-13T12:06:40;101836.44;;;27.84
31921;BMP280;66485;52.128;4.436;2023-07-13T12:09:13;101830.47;;;27.86
31921;BMP280;66485;52.128;4.436;2023-07-13T12:11:40;101828.94;;;27.85
31921;BMP280;66485;52.128;4.436;2023-07-13T12:14:13;101836.59;;;27.90
31921;BMP280;66485;52.128;4.436;2023-07-13T12:16:38;101840.84;;;27.91
31921;BMP280;66485;52.128;4.436;2023-07-13T12:19:17;101844.22;;;27.95
31921;BMP280;66485;52.128;4.436;2023-07-13T12:21:43;101835.03;;;27.98
31921;BMP280;66485;52.128;4.436;2023-07-13T12:24:15;101835.03;;;27.98
31921;BMP280;66485;52.128;4.436;2023-07-13T12:26:41;101838.06;;;28.00
31921;BMP280;66485;52.128;4.436;2023-07-13T12:29:07;101832.88;;;28.02
31921;BMP280;66485;52.128;4.436;2023-07-13T12:31:40;101834.72;;;28.05
31921;BMP280;66485;52.128;4.436;2023-07-13T12:34:17;101848.03;;;28.06
31921;BMP280;66485;52.128;4.436;2023-07-13T12:36:47;101848.03;;;28.06
31921;BMP280;66485;52.128;4.436;2023-07-13T12:41:50;101839.56;;;28.19
31921;BMP280;66485;52.128;4.436;2023-07-13T12:44:39;101838.81;;;28.18
31921;BMP280;66485;52.128;4.436;2023-07-13T12:47:11;101838.81;;;28.18
31921;BMP280;66485;52.128;4.436;2023-07-13T12:49:42;101842.91;;;28.23
31921;BMP280;66485;52.128;4.436;2023-07-13T12:52:20;101842.91;;;28.23
31921;BMP280;66485;52.128;4.436;2023-07-13T12:55:04;101844.28;;;28.28
31921;BMP280;66485;52.128;4.436;2023-07-13T12:57:30;101844.41;;;28.33
31921;BMP280;66485;52.128;4.436;2023-07-13T12:59:55;101842.00;;;28.35
31921;BMP280;66485;52.128;4.436;2023-07-13T13:02:32;101850.53;;;28.37
31921;BMP280;66485;52.128;4.436;2023-07-13T13:04:59;101852.34;;;28.40
31921;BMP280;66485;52.128;4.436;2023-07-13T13:07:26;101848.38;;;28.41
31921;BMP280;66485;52.128;4.436;2023-07-13T13:09:51;101849.88;;;28.42
31921;BMP280;66485;52.128;4.436;2023-07-13T13:12:19;101853.13;;;28.41
31921;BMP280;66485;52.128;4.436;2023-07-13T13:14:45;101863.53;;;28.46
31921;BMP280;66485;52.128;4.436;2023-07-13T13:17:24;101863.63;;;28.51
31921;BMP280;66485;52.128;4.436;2023-07-13T13:19:53;101863.84;;;28.48
31921;BMP280;66485;52.128;4.436;2023-07-13T13:22:19;101861.81;;;28.48
31921;BMP280;66485;52.128;4.436;2023-07-13T13:24:45;101857.19;;;28.54
31921;BMP280;66485;52.128;4.436;2023-07-13T13:27:20;101859.03;;;28.57
31921;BMP280;66485;52.128;4.436;2023-07-13T13:29:49;101859.03;;;28.57
31921;BMP280;66485;52.128;4.436;2023-07-13T13:32:16;101851.63;;;28.63
31921;BMP280;66485;52.128;4.436;2023-07-13T13:34:42;101864.19;;;28.64
31921;BMP280;66485;52.128;4.436;2023-07-13T13:37:22;101864.97;;;28.65
31921;BMP280;66485;52.128;4.436;2023-07-13T13:39:49;101864.97;;;28.65
31921;BMP280;66485;52.128;4.436;2023-07-13T13:42:15;101877.94;;;28.74
31921;BMP280;66485;52.128;4.436;2023-07-13T13:44:40;101877.94;;;28.74
31921;BMP280;66485;52.128;4.436;2023-07-13T13:47:32;101868.16;;;28.73
31921;BMP280;66485;52.128;4.436;2023-07-13T13:49:58;101863.88;;;28.72
31921;BMP280;66485;52.128;4.436;2023-07-13T13:52:24;101871.84;;;28.70
31921;BMP280;66485;52.128;4.436;2023-07-13T13:54:51;101867.69;;;28.74
31921;BMP280;66485;52.128;4.436;2023-07-13T13:57:24;101867.69;;;28.74
31921;BMP280;66485;52.128;4.436;2023-07-13T13:59:53;101871.34;;;28.80
31921;BMP280;66485;52.128;4.436;2023-07-13T14:02:24;101858.13;;;28.84
31921;BMP280;66485;52.128;4.436;2023-07-13T14:04:54;101867.47;;;28.87
31921;BMP280;66485;52.128;4.436;2023-07-13T14:07:20;101867.47;;;28.87
31921;BMP280;66485;52.128;4.436;2023-07-13T14:09:45;101862.41;;;28.85
31921;BMP280;66485;52.128;4.436;2023-07-13T14:12:11;101861.66;;;28.85
31921;BMP280;66485;52.128;4.436;2023-07-13T14:14:37;101866.56;;;28.90
31921;BMP280;66485;52.128;4.436;2023-07-13T14:17:03;101858.38;;;28.95
31921;BMP280;66485;52.128;4.436;2023-07-13T14:19:29;101858.38;;;28.95
31921;BMP280;66485;52.128;4.436;2023-07-13T14:21:54;101872.19;;;28.95
31921;BMP280;66485;52.128;4.436;2023-07-13T14:24:20;101864.03;;;29.01
31921;BMP280;66485;52.128;4.436;2023-07-13T14:26:46;101865.53;;;29.02
31921;BMP280;66485;52.128;4.436;2023-07-13T14:29:17;101861.81;;;29.05
31921;BMP280;66485;52.128;4.436;2023-07-13T14:31:44;101863.84;;;29.04
31921;BMP280;66485;52.128;4.436;2023-07-13T14:34:11;101868.41;;;29.07
31921;BMP280;66485;52.128;4.436;2023-07-13T14:36:40;101868.41;;;29.07
31921;BMP280;66485;52.128;4.436;2023-07-13T14:39:15;101857.56;;;29.04
31921;BMP280;66485;52.128;4.436;2023-07-13T14:41:42;101862.13;;;29.07
31921;BMP280;66485;52.128;4.436;2023-07-13T14:44:15;101862.13;;;29.07